createdAt,value
2017-09-14T00:01:20.057Z,11.10
2017-09-14T00:03:47.617Z,11.10
2017-09-14T00:06:15.137Z,11.20
2017-09-14T00:08:42.701Z,11.20
2017-09-14T00:11:10.228Z,11.20
2017-09-14T00:13:38.527Z,11.20
2017-09-14T00:16:06.055Z,11.20
2017-09-14T00:18:34.354Z,11.20
2017-09-14T00:21:01.889Z,11.10
2017-09-14T00:23:30.203Z,11.20
2017-09-14T00:25:57.771Z,11.20
2017-09-14T00:28:25.322Z,11.10
2017-09-14T00:30:52.891Z,11.20
2017-09-14T00:33:20.443Z,11.10
2017-09-14T00:35:47.962Z,11.10
2017-09-14T00:38:15.518Z,11.10
2017-09-14T00:40:43.051Z,11.10
2017-09-14T00:43:10.579Z,11.10
2017-09-14T00:45:38.119Z,11.10
2017-09-14T00:48:06.418Z,11.00
2017-09-14T00:50:33.965Z,11.00
2017-09-14T00:53:01.539Z,11.00
2017-09-14T00:55:29.103Z,11.00
2017-09-14T00:57:56.628Z,11.00
2017-09-14T01:00:24.915Z,10.90
2017-09-14T01:02:52.442Z,10.90
2017-09-14T01:05:19.958Z,10.90
2017-09-14T01:07:47.557Z,10.90
2017-09-14T01:10:15.097Z,10.90
2017-09-14T01:12:42.631Z,10.90
2017-09-14T01:15:10.144Z,10.90
2017-09-14T01:17:38.064Z,10.90
2017-09-14T01:20:05.581Z,10.80
2017-09-14T01:22:33.868Z,10.80
2017-09-14T01:25:01.397Z,10.80
2017-09-14T01:27:28.910Z,10.80
2017-09-14T01:29:56.438Z,10.80
2017-09-14T01:32:24.722Z,10.80
2017-09-14T01:34:52.508Z,10.80
2017-09-14T01:37:20.011Z,10.80
2017-09-14T01:39:48.311Z,10.80
2017-09-14T01:42:16.601Z,10.70
2017-09-14T01:44:44.123Z,10.70
2017-09-14T01:47:11.643Z,10.70
2017-09-14T01:49:39.147Z,10.70
2017-09-14T01:52:07.443Z,10.60
2017-09-14T01:54:34.978Z,10.60
2017-09-14T01:57:02.518Z,10.60
2017-09-14T01:59:30.043Z,10.60
2017-09-14T02:01:57.554Z,10.50
2017-09-14T02:04:25.104Z,10.50
2017-09-14T02:06:52.616Z,10.50
2017-09-14T02:09:20.120Z,10.50
2017-09-14T02:11:47.635Z,10.50
2017-09-14T02:14:15.138Z,10.40
2017-09-14T02:16:42.967Z,10.50
2017-09-14T02:19:10.518Z,10.40
2017-09-14T02:21:38.047Z,10.40
2017-09-14T02:24:05.580Z,10.40
2017-09-14T02:26:33.103Z,10.40
2017-09-14T02:29:00.965Z,10.50
2017-09-14T02:31:28.554Z,10.40
2017-09-14T02:33:56.065Z,10.40
2017-09-14T02:36:23.633Z,10.30
2017-09-14T02:38:51.171Z,10.30
2017-09-14T02:41:18.702Z,10.30
2017-09-14T02:43:46.992Z,10.20
2017-09-14T02:46:14.930Z,10.20
2017-09-14T02:48:42.466Z,10.20
2017-09-14T02:51:09.990Z,10.20
2017-09-14T02:53:37.520Z,10.20
2017-09-14T02:56:05.033Z,10.20
2017-09-14T02:58:32.638Z,10.10
2017-09-14T03:01:00.160Z,10.10
2017-09-14T03:03:27.686Z,10.10
2017-09-14T03:05:56.850Z,10.10
2017-09-14T03:08:24.399Z,10.10
2017-09-14T03:10:51.907Z,10.10
2017-09-14T03:13:19.466Z,10.10
2017-09-14T03:15:47.036Z,10.00
2017-09-14T03:18:14.594Z,10.00
2017-09-14T03:20:42.175Z,10.00
2017-09-14T03:23:09.706Z,10.00
2017-09-14T03:25:37.212Z,10.00
2017-09-14T03:28:04.773Z,10.00
2017-09-14T03:30:32.341Z,10.00
2017-09-14T03:32:59.874Z,10.00
2017-09-14T03:35:27.391Z,9.90
2017-09-14T03:37:54.956Z,10.00
2017-09-14T03:40:22.512Z,10.00
2017-09-14T03:42:50.042Z,10.00
2017-09-14T03:45:17.574Z,10.00
2017-09-14T03:47:45.100Z,10.00
2017-09-14T03:50:12.613Z,9.80
2017-09-14T03:52:40.147Z,9.90
2017-09-14T03:55:07.672Z,9.90
2017-09-14T03:57:35.543Z,9.90
2017-09-14T04:00:03.106Z,9.90
2017-09-14T04:02:30.635Z,9.90
2017-09-14T04:04:58.938Z,9.90
2017-09-14T04:07:26.459Z,9.90
2017-09-14T04:09:54.759Z,9.80
2017-09-14T04:12:22.271Z,9.80
2017-09-14T04:14:50.213Z,9.80
2017-09-14T04:17:17.739Z,9.80
2017-09-14T04:19:45.272Z,9.80
2017-09-14T04:22:12.791Z,9.80
2017-09-14T04:24:40.308Z,9.80
2017-09-14T04:27:08.621Z,9.80
2017-09-14T04:29:36.138Z,9.80
2017-09-14T04:32:03.674Z,9.80
2017-09-14T04:34:31.196Z,9.80
2017-09-14T04:36:58.827Z,9.80
2017-09-14T04:39:26.381Z,9.80
2017-09-14T04:41:53.912Z,9.80
2017-09-14T04:44:21.732Z,9.80
2017-09-14T04:46:49.261Z,9.90
2017-09-14T04:49:17.560Z,9.90
2017-09-14T04:51:45.098Z,9.90
2017-09-14T04:54:12.627Z,9.80
2017-09-14T04:56:40.166Z,9.80
2017-09-14T04:59:07.692Z,9.90
2017-09-14T05:01:35.570Z,9.80
2017-09-14T05:04:03.121Z,9.80
2017-09-14T05:06:30.632Z,9.90
2017-09-14T05:08:58.151Z,9.80
2017-09-14T05:11:25.748Z,9.80
2017-09-14T05:13:53.283Z,9.90
2017-09-14T05:16:20.819Z,9.90
2017-09-14T05:18:48.420Z,9.90
2017-09-14T05:21:16.051Z,9.90
2017-09-14T05:23:44.303Z,9.90
2017-09-14T05:26:11.833Z,9.90
2017-09-14T05:28:40.139Z,9.90
2017-09-14T05:31:07.741Z,9.90
2017-09-14T05:33:35.263Z,9.90
2017-09-14T05:36:02.832Z,10.00
2017-09-14T05:38:30.384Z,9.90
2017-09-14T05:40:58.657Z,9.90
2017-09-14T05:43:26.200Z,9.90
2017-09-14T05:45:53.716Z,9.90
2017-09-14T05:48:21.249Z,9.90
2017-09-14T05:50:48.765Z,9.90
2017-09-14T05:53:16.457Z,9.90
2017-09-14T05:55:43.982Z,9.90
2017-09-14T05:58:11.533Z,9.90
2017-09-14T06:00:39.035Z,9.90
2017-09-14T06:03:06.565Z,9.80
2017-09-14T06:05:34.086Z,9.90
2017-09-14T06:08:01.634Z,9.80
2017-09-14T06:10:29.157Z,9.80
2017-09-14T06:12:56.689Z,9.80
2017-09-14T06:15:24.220Z,9.90
2017-09-14T06:17:51.750Z,9.90
2017-09-14T06:20:19.274Z,9.80
2017-09-14T06:22:46.819Z,9.90
2017-09-14T06:25:14.356Z,9.90
2017-09-14T06:27:41.884Z,10.00
2017-09-14T06:30:09.401Z,9.90
2017-09-14T06:32:38.021Z,10.00
2017-09-14T06:35:05.543Z,9.90
2017-09-14T06:37:33.822Z,9.80
2017-09-14T06:40:02.134Z,9.90
2017-09-14T06:42:29.658Z,9.90
2017-09-14T06:44:57.968Z,9.80
2017-09-14T06:47:25.480Z,9.80
2017-09-14T06:49:53.013Z,9.80
2017-09-14T06:52:20.545Z,9.90
2017-09-14T06:54:48.068Z,9.90
2017-09-14T06:57:15.595Z,9.90
2017-09-14T06:59:43.132Z,9.90
2017-09-14T07:02:10.665Z,9.90
2017-09-14T07:04:38.187Z,9.90
2017-09-14T07:07:05.737Z,10.00
2017-09-14T07:09:33.253Z,10.00
2017-09-14T07:12:00.797Z,10.00
2017-09-14T07:14:28.413Z,10.10
2017-09-14T07:16:55.926Z,10.00
2017-09-14T07:19:23.487Z,10.00
2017-09-14T07:21:51.009Z,10.10
2017-09-14T07:24:18.845Z,10.00
2017-09-14T07:26:46.398Z,10.00
2017-09-14T07:29:14.037Z,10.00
2017-09-14T07:31:41.595Z,10.00
2017-09-14T07:34:09.121Z,10.10
2017-09-14T07:36:36.677Z,10.10
2017-09-14T07:39:04.990Z,10.00
2017-09-14T07:41:32.568Z,10.00
2017-09-14T07:44:00.116Z,9.90
2017-09-14T07:46:29.230Z,9.90
2017-09-14T07:48:56.773Z,9.90
2017-09-14T07:51:24.295Z,9.90
2017-09-14T07:53:52.618Z,9.90
2017-09-14T07:56:20.135Z,9.90
2017-09-14T07:58:48.036Z,10.00
2017-09-14T08:01:15.555Z,9.90
2017-09-14T08:03:43.063Z,9.90
2017-09-14T08:06:10.591Z,9.90
2017-09-14T08:08:38.165Z,9.90
2017-09-14T08:11:05.704Z,9.90
2017-09-14T08:13:33.219Z,9.90
2017-09-14T08:16:01.154Z,10.00
2017-09-14T08:18:28.689Z,10.00
2017-09-14T08:20:56.220Z,10.00
2017-09-14T08:23:24.549Z,10.00
2017-09-14T08:25:52.111Z,9.90
2017-09-14T08:28:19.662Z,10.00
2017-09-14T08:30:47.232Z,10.10
2017-09-14T08:33:14.769Z,10.10
2017-09-14T08:35:42.307Z,10.10
2017-09-14T08:38:10.637Z,10.00
2017-09-14T08:40:38.595Z,10.00
2017-09-14T08:43:06.136Z,9.90
2017-09-14T08:45:33.661Z,9.90
2017-09-14T08:48:02.004Z,9.80
2017-09-14T08:50:29.563Z,9.80
2017-09-14T08:52:57.086Z,9.80
2017-09-14T08:55:24.660Z,9.80
2017-09-14T08:57:52.627Z,9.80
2017-09-14T09:00:20.133Z,9.70
2017-09-14T09:02:47.655Z,9.70
2017-09-14T09:05:15.173Z,9.70
2017-09-14T09:07:42.755Z,9.60
2017-09-14T09:10:10.292Z,9.60
2017-09-14T09:12:37.863Z,9.40
2017-09-14T09:15:05.658Z,9.30
2017-09-14T09:17:33.210Z,9.20
2017-09-14T09:20:00.727Z,9.20
2017-09-14T09:22:29.046Z,9.20
2017-09-14T09:24:56.559Z,9.10
2017-09-14T09:27:24.865Z,9.20
2017-09-14T09:29:52.407Z,9.10
2017-09-14T09:32:20.197Z,9.10
2017-09-14T09:34:47.737Z,9.20
2017-09-14T09:37:15.280Z,9.20
2017-09-14T09:39:43.614Z,9.60
2017-09-14T09:42:11.133Z,9.60
2017-09-14T09:44:38.684Z,9.90
2017-09-14T09:47:06.233Z,10.20
2017-09-14T09:49:33.786Z,10.60
2017-09-14T09:52:02.105Z,11.00
2017-09-14T09:54:29.637Z,11.00
2017-09-14T09:56:57.217Z,11.30
2017-09-14T09:59:24.844Z,11.50
2017-09-14T10:01:52.419Z,11.60
2017-09-14T10:04:19.970Z,11.60
2017-09-14T10:06:48.601Z,11.30
2017-09-14T10:09:16.124Z,11.30
2017-09-14T10:11:43.638Z,11.30
2017-09-14T10:14:11.177Z,11.10
2017-09-14T10:16:38.697Z,11.00
2017-09-14T10:19:06.268Z,10.80
2017-09-14T10:21:33.790Z,10.90
2017-09-14T10:24:01.340Z,10.80
2017-09-14T10:26:28.879Z,10.50
2017-09-14T10:28:56.417Z,10.40
2017-09-14T10:31:23.990Z,10.40
2017-09-14T10:33:51.499Z,10.40
2017-09-14T10:36:19.786Z,9.80
2017-09-14T10:38:47.345Z,9.80
2017-09-14T10:41:15.227Z,9.70
2017-09-14T10:43:42.752Z,9.70
2017-09-14T10:46:10.290Z,9.70
2017-09-14T10:48:37.811Z,9.70
2017-09-14T10:51:05.331Z,9.70
2017-09-14T10:53:33.688Z,9.50
2017-09-14T10:56:01.226Z,9.40
2017-09-14T10:58:28.882Z,9.30
2017-09-14T11:00:56.389Z,9.10
2017-09-14T11:03:24.682Z,9.00
2017-09-14T11:05:52.228Z,9.00
2017-09-14T11:08:19.809Z,9.00
2017-09-14T11:10:47.382Z,9.00
2017-09-14T11:13:14.897Z,8.90
2017-09-14T11:15:43.286Z,8.70
2017-09-14T11:18:10.820Z,8.70
2017-09-14T11:20:38.530Z,8.70
2017-09-14T11:23:06.098Z,8.70
2017-09-14T11:25:33.619Z,8.60
2017-09-14T11:28:02.275Z,8.50
2017-09-14T11:30:29.795Z,8.70
2017-09-14T11:32:58.117Z,8.70
2017-09-14T11:35:25.672Z,8.70
2017-09-14T11:37:53.200Z,8.70
2017-09-14T11:40:20.785Z,8.80
2017-09-14T11:42:48.311Z,8.80
2017-09-14T11:45:15.867Z,8.90
2017-09-14T11:47:43.461Z,8.90
2017-09-14T11:50:10.975Z,9.00
2017-09-14T11:52:38.558Z,9.10
2017-09-14T11:55:06.074Z,9.20
2017-09-14T11:57:34.768Z,9.50
2017-09-14T12:00:02.306Z,9.50
2017-09-14T12:02:29.812Z,9.60
2017-09-14T12:04:57.336Z,9.70
2017-09-14T12:07:25.610Z,9.90
2017-09-14T12:09:53.922Z,9.90
2017-09-14T12:12:21.441Z,9.90
2017-09-14T12:14:49.814Z,10.00
2017-09-14T12:17:18.100Z,10.10
2017-09-14T12:19:46.699Z,10.30
2017-09-14T12:22:14.244Z,10.30
2017-09-14T12:24:42.560Z,10.60
2017-09-14T12:27:10.133Z,10.60
2017-09-14T12:29:37.681Z,10.70
2017-09-14T12:32:05.210Z,10.70
2017-09-14T12:34:32.773Z,10.70
2017-09-14T12:37:00.314Z,10.80
2017-09-14T12:39:27.839Z,10.90
2017-09-14T12:41:55.404Z,11.00
2017-09-14T12:44:22.960Z,11.10
2017-09-14T12:46:50.489Z,11.10
2017-09-14T12:49:18.084Z,11.20
2017-09-14T12:51:46.481Z,11.30
2017-09-14T12:54:14.047Z,11.30
2017-09-14T12:56:42.404Z,11.20
2017-09-14T12:59:09.925Z,11.20
2017-09-14T13:01:37.485Z,11.20
2017-09-14T13:04:05.028Z,11.00
2017-09-14T13:06:32.663Z,11.10
2017-09-14T13:09:00.967Z,11.20
2017-09-14T13:11:28.487Z,11.10
2017-09-14T13:13:56.808Z,11.10
2017-09-14T13:16:24.327Z,11.10
2017-09-14T13:18:51.880Z,11.20
2017-09-14T13:21:20.212Z,11.70
2017-09-14T13:23:47.766Z,11.70
2017-09-14T13:26:15.342Z,12.00
2017-09-14T13:28:42.889Z,12.00
2017-09-14T13:31:12.268Z,12.30
2017-09-14T13:33:39.792Z,12.60
2017-09-14T13:36:07.330Z,13.20
2017-09-14T13:38:34.843Z,13.40
2017-09-14T13:41:02.484Z,13.20
2017-09-14T13:43:30.063Z,12.80
2017-09-14T13:45:57.605Z,12.50
2017-09-14T13:48:25.976Z,12.40
2017-09-14T13:50:53.537Z,12.30
2017-09-14T13:53:21.837Z,12.40
2017-09-14T13:55:49.371Z,12.40
2017-09-14T13:58:17.743Z,13.10
2017-09-14T14:00:46.048Z,13.10
2017-09-14T14:03:13.585Z,13.10
2017-09-14T14:05:41.176Z,13.40
2017-09-14T14:08:09.458Z,13.10
2017-09-14T14:10:37.034Z,13.10
2017-09-14T14:13:04.577Z,13.00
2017-09-14T14:15:32.128Z,13.50
2017-09-14T14:17:59.672Z,14.00
2017-09-14T14:20:27.199Z,14.60
2017-09-14T14:22:54.753Z,15.10
2017-09-14T14:25:22.295Z,15.30
2017-09-14T14:27:49.844Z,15.10
2017-09-14T14:30:17.373Z,15.40
2017-09-14T14:32:44.897Z,15.00
2017-09-14T14:35:12.439Z,15.00
2017-09-14T14:37:40.009Z,14.70
2017-09-14T14:40:07.568Z,14.70
2017-09-14T14:42:35.081Z,14.60
2017-09-14T14:45:02.603Z,14.50
2017-09-14T14:47:31.815Z,14.90
2017-09-14T14:49:59.358Z,14.90
2017-09-14T14:52:27.690Z,16.00
2017-09-14T14:54:55.241Z,16.00
2017-09-14T14:57:22.765Z,15.80
2017-09-14T14:59:51.051Z,14.10
2017-09-14T15:02:18.741Z,14.10
2017-09-14T15:04:46.270Z,14.00
2017-09-14T15:07:14.184Z,14.00
2017-09-14T15:09:41.718Z,13.60
2017-09-14T15:12:10.007Z,13.50
2017-09-14T15:14:37.543Z,13.50
2017-09-14T15:17:05.055Z,14.10
2017-09-14T15:19:32.670Z,14.80
2017-09-14T15:22:01.185Z,14.80
2017-09-14T15:24:28.744Z,14.50
2017-09-14T15:26:56.262Z,14.10
2017-09-14T15:29:23.796Z,13.70
2017-09-14T15:31:51.344Z,13.30
2017-09-14T15:34:19.761Z,12.70
2017-09-14T15:36:47.316Z,12.70
2017-09-14T15:39:20.458Z,12.60
2017-09-14T15:41:48.008Z,12.50
2017-09-14T15:44:21.080Z,12.50
2017-09-14T15:46:48.648Z,12.50
2017-09-14T15:49:21.936Z,12.50
2017-09-14T15:51:52.664Z,12.50
2017-09-14T15:54:20.236Z,12.50
2017-09-14T15:56:47.791Z,12.40
2017-09-14T15:59:16.317Z,12.40
2017-09-14T16:01:43.845Z,12.30
2017-09-14T16:04:11.491Z,12.30
2017-09-14T16:06:39.041Z,12.10
2017-09-14T16:09:06.582Z,12.10
2017-09-14T16:11:34.142Z,12.00
2017-09-14T16:14:01.675Z,11.90
2017-09-14T16:16:30.040Z,11.60
2017-09-14T16:18:58.339Z,11.30
2017-09-14T16:21:26.118Z,11.30
2017-09-14T16:23:53.690Z,11.00
2017-09-14T16:26:21.988Z,10.60
2017-09-14T16:28:49.557Z,10.60
2017-09-14T16:31:17.153Z,10.30
2017-09-14T16:33:44.691Z,10.10
2017-09-14T16:36:12.978Z,9.80
2017-09-14T16:38:41.380Z,9.70
2017-09-14T16:41:08.917Z,9.70
2017-09-14T16:43:37.215Z,9.60
2017-09-14T16:46:04.770Z,9.50
2017-09-14T16:48:32.291Z,9.60
2017-09-14T16:51:00.603Z,9.50
2017-09-14T16:53:28.738Z,9.50
2017-09-14T16:55:56.275Z,9.50
2017-09-14T16:58:23.820Z,9.40
2017-09-14T17:00:51.340Z,9.40
2017-09-14T17:03:18.883Z,9.40
2017-09-14T17:05:47.177Z,9.40
2017-09-14T17:08:15.730Z,9.40
2017-09-14T17:10:43.249Z,9.40
2017-09-14T17:13:10.773Z,9.50
2017-09-14T17:15:39.086Z,9.50
2017-09-14T17:18:06.640Z,9.50
2017-09-14T17:20:34.180Z,9.50
2017-09-14T17:23:01.710Z,9.50
2017-09-14T17:25:29.248Z,9.50
2017-09-14T17:27:56.761Z,9.60
2017-09-14T17:30:24.272Z,9.60
2017-09-14T17:32:51.838Z,9.60
2017-09-14T17:35:19.366Z,9.60
2017-09-14T17:37:47.623Z,9.60
2017-09-14T17:40:15.192Z,9.50
2017-09-14T17:42:43.477Z,9.50
2017-09-14T17:45:11.003Z,9.70
2017-09-14T17:47:38.524Z,9.60
2017-09-14T17:50:06.076Z,9.60
2017-09-14T17:52:33.595Z,9.60
2017-09-14T17:55:01.299Z,9.60
2017-09-14T17:57:28.822Z,9.70
2017-09-14T17:59:56.715Z,9.50
2017-09-14T18:02:24.546Z,9.40
2017-09-14T18:04:52.057Z,9.40
2017-09-14T18:07:19.634Z,9.40
2017-09-14T18:09:47.919Z,9.30
2017-09-14T18:12:15.440Z,9.30
2017-09-14T18:14:43.012Z,9.30
2017-09-14T18:17:10.587Z,9.30
2017-09-14T18:19:38.139Z,9.30
2017-09-14T18:22:06.059Z,9.30
2017-09-14T18:24:33.589Z,9.30
2017-09-14T18:27:01.099Z,9.30
2017-09-14T18:29:28.853Z,9.30
2017-09-14T18:31:56.383Z,9.30
2017-09-14T18:34:23.948Z,9.30
2017-09-14T18:36:51.533Z,9.40
2017-09-14T18:39:19.076Z,9.40
2017-09-14T18:41:46.632Z,9.40
2017-09-14T18:44:14.196Z,9.40
2017-09-14T18:46:41.764Z,9.40
2017-09-14T18:49:09.749Z,9.50
2017-09-14T18:51:37.329Z,9.50
2017-09-14T18:54:05.663Z,9.60
2017-09-14T18:56:33.497Z,9.60
2017-09-14T18:59:01.055Z,9.70
2017-09-14T19:01:28.565Z,9.70
2017-09-14T19:03:56.128Z,9.70
2017-09-14T19:06:23.661Z,9.80
2017-09-14T19:08:51.223Z,9.80
2017-09-14T19:11:18.771Z,9.90
2017-09-14T19:13:46.312Z,9.90
2017-09-14T19:16:13.960Z,9.90
2017-09-14T19:18:41.513Z,10.00
2017-09-14T19:21:09.837Z,10.10
2017-09-14T19:23:37.707Z,10.00
2017-09-14T19:26:05.375Z,10.00
2017-09-14T19:28:33.234Z,10.00
2017-09-14T19:31:00.800Z,10.10
2017-09-14T19:33:28.360Z,10.10
2017-09-14T19:35:55.938Z,10.10
2017-09-14T19:38:23.508Z,10.10
2017-09-14T19:40:51.045Z,10.20
2017-09-14T19:43:18.909Z,10.10
2017-09-14T19:45:46.433Z,10.20
2017-09-14T19:48:13.957Z,10.20
2017-09-14T19:50:41.514Z,10.20
2017-09-14T19:53:09.853Z,10.20
2017-09-14T19:55:37.408Z,10.10
2017-09-14T19:58:04.947Z,10.20
2017-09-14T20:00:32.486Z,12.30
2017-09-14T20:03:00.053Z,10.30
2017-09-14T20:05:27.587Z,10.30
2017-09-14T20:07:55.918Z,10.30
2017-09-14T20:10:23.471Z,10.30
2017-09-14T20:12:51.031Z,10.30
2017-09-14T20:15:18.571Z,10.40
2017-09-14T20:17:46.159Z,10.30
2017-09-14T20:20:13.759Z,10.40
2017-09-14T20:22:41.291Z,10.40
2017-09-14T20:25:08.903Z,10.40
2017-09-14T20:27:36.432Z,10.40
2017-09-14T20:30:04.782Z,10.50
2017-09-14T20:32:32.340Z,10.40
2017-09-14T20:34:59.932Z,10.50
2017-09-14T20:37:27.732Z,10.50
2017-09-14T20:39:55.270Z,10.50
2017-09-14T20:42:22.829Z,10.50
2017-09-14T20:44:51.134Z,10.50
2017-09-14T20:47:18.725Z,10.40
2017-09-14T20:49:46.295Z,10.60
2017-09-14T20:52:14.278Z,10.50
2017-09-14T20:54:41.855Z,10.50
2017-09-14T20:57:10.202Z,10.50
2017-09-14T20:59:37.781Z,10.50
2017-09-14T21:02:05.315Z,10.50
2017-09-14T21:04:32.871Z,10.50
2017-09-14T21:07:00.400Z,10.50
2017-09-14T21:09:27.939Z,10.50
2017-09-14T21:11:55.508Z,10.40
2017-09-14T21:14:23.081Z,10.40
2017-09-14T21:16:50.636Z,10.30
2017-09-14T21:19:18.177Z,10.30
2017-09-14T21:21:45.734Z,10.20
2017-09-14T21:24:13.293Z,10.20
2017-09-14T21:26:41.308Z,10.20
2017-09-14T21:29:08.866Z,10.20
2017-09-14T21:31:36.533Z,10.00
2017-09-14T21:34:04.164Z,10.10
2017-09-14T21:36:31.734Z,10.00
2017-09-14T21:38:59.358Z,10.00
2017-09-14T21:41:26.959Z,9.90
2017-09-14T21:43:54.541Z,9.90
2017-09-14T21:46:22.954Z,9.90
2017-09-14T21:48:50.510Z,9.90
2017-09-14T21:51:18.862Z,10.00
2017-09-14T21:53:46.444Z,9.80
2017-09-14T21:56:14.721Z,9.80
2017-09-14T21:58:43.056Z,9.90
2017-09-14T22:01:10.594Z,10.00
2017-09-14T22:03:38.144Z,9.90
2017-09-14T22:06:05.696Z,9.90
2017-09-14T22:08:33.201Z,9.90
2017-09-14T22:11:00.756Z,9.90
2017-09-14T22:13:28.269Z,9.90
2017-09-14T22:15:57.572Z,9.90
2017-09-14T22:18:25.151Z,9.90
2017-09-14T22:20:52.668Z,9.90
2017-09-14T22:23:21.015Z,10.00
2017-09-14T22:25:48.642Z,10.00
2017-09-14T22:28:16.335Z,10.00
2017-09-14T22:30:43.863Z,10.00
2017-09-14T22:33:11.402Z,10.10
2017-09-14T22:35:38.997Z,10.00
2017-09-14T22:38:06.576Z,10.20
2017-09-14T22:40:34.107Z,10.10
2017-09-14T22:43:01.752Z,9.50
2017-09-14T22:45:30.081Z,10.10
2017-09-14T22:47:58.285Z,10.10
2017-09-14T22:50:26.604Z,10.20
2017-09-14T22:52:54.561Z,10.10
2017-09-14T22:55:22.083Z,10.30
2017-09-14T22:57:50.375Z,10.20
2017-09-14T23:00:17.918Z,10.20
2017-09-14T23:02:45.456Z,10.20
2017-09-14T23:05:12.993Z,10.20
2017-09-14T23:07:40.512Z,10.20
2017-09-14T23:10:08.044Z,10.20
2017-09-14T23:12:36.341Z,10.30
2017-09-14T23:15:04.637Z,10.20
2017-09-14T23:17:32.167Z,10.20
2017-09-14T23:19:59.671Z,10.20
2017-09-14T23:22:27.528Z,10.30
2017-09-14T23:24:55.071Z,10.30
2017-09-14T23:27:22.586Z,10.30
2017-09-14T23:29:50.146Z,10.30
2017-09-14T23:32:17.661Z,10.30
2017-09-14T23:34:45.983Z,10.30
2017-09-14T23:37:13.516Z,10.30
2017-09-14T23:39:41.051Z,10.20
2017-09-14T23:42:08.603Z,10.20
2017-09-14T23:44:36.128Z,10.20
2017-09-14T23:47:04.436Z,10.20
2017-09-14T23:49:31.959Z,10.20
2017-09-14T23:51:59.515Z,10.20
2017-09-14T23:54:27.037Z,10.20
2017-09-14T23:56:54.573Z,10.20
2017-09-14T23:59:22.097Z,10.20
